createdAt,value
2022-10-17T00:02:06.188Z,59.32
2022-10-17T00:07:04.306Z,58.93
2022-10-17T00:09:30.861Z,58.42
2022-10-17T00:11:57.378Z,58.90
2022-10-17T00:14:23.952Z,59.37
2022-10-17T00:16:50.535Z,58.60
2022-10-17T00:19:17.065Z,59.38
2022-10-17T00:21:43.640Z,58.57
2022-10-17T00:24:10.205Z,58.72
2022-10-17T00:26:36.850Z,59.52
2022-10-17T00:29:03.600Z,58.49
2022-10-17T00:31:30.943Z,59.61
2022-10-17T00:33:57.626Z,59.79
2022-10-17T00:36:25.903Z,58.56
2022-10-17T00:38:58.667Z,58.53
2022-10-17T00:41:28.917Z,58.50
2022-10-17T00:44:08.184Z,58.17
2022-10-17T00:46:37.342Z,57.72
2022-10-17T00:49:07.982Z,58.16
2022-10-17T00:51:41.003Z,58.63
2022-10-17T00:54:09.047Z,59.40
2022-10-17T00:56:35.823Z,60.10
2022-10-17T00:59:03.194Z,59.71
2022-10-17T01:01:30.053Z,59.21
2022-10-17T01:03:58.131Z,58.78
2022-10-17T01:06:24.686Z,58.65
2022-10-17T01:08:51.252Z,59.38
2022-10-17T01:11:30.710Z,58.93
2022-10-17T01:14:09.029Z,59.06
2022-10-17T01:16:38.223Z,59.30
2022-10-17T01:19:07.670Z,59.66
2022-10-17T01:21:51.834Z,59.48
2022-10-17T01:24:57.992Z,59.73
2022-10-17T01:27:36.412Z,59.51
2022-10-17T01:30:21.905Z,59.58
2022-10-17T01:33:06.639Z,59.39
2022-10-17T01:35:43.167Z,58.97
2022-10-17T01:38:20.091Z,58.85
2022-10-17T01:40:56.546Z,58.55
2022-10-17T01:43:39.187Z,58.88
2022-10-17T01:46:31.715Z,59.14
2022-10-17T01:49:01.684Z,58.39
2022-10-17T01:51:33.338Z,58.92
2022-10-17T01:54:06.762Z,59.58
2022-10-17T01:56:35.988Z,59.00
2022-10-17T01:59:10.059Z,59.85
2022-10-17T02:01:39.024Z,59.53
2022-10-17T02:04:09.811Z,59.77
2022-10-17T02:06:37.042Z,59.63
2022-10-17T02:09:35.975Z,59.38
2022-10-17T02:12:25.913Z,59.73
2022-10-17T02:15:11.632Z,59.25
2022-10-17T02:18:03.202Z,58.88
2022-10-17T02:20:37.770Z,58.52
2022-10-17T02:23:33.667Z,58.78
2022-10-17T02:26:10.115Z,58.98
2022-10-17T02:28:47.367Z,59.19
2022-10-17T02:31:17.019Z,59.37
2022-10-17T02:34:07.972Z,59.05
2022-10-17T02:36:39.599Z,59.18
2022-10-17T02:39:09.447Z,58.99
2022-10-17T02:41:38.709Z,58.95
2022-10-17T02:44:07.278Z,58.99
2022-10-17T02:46:35.546Z,59.83
2022-10-17T02:49:28.093Z,59.95
2022-10-17T02:52:12.739Z,59.81
2022-10-17T02:54:52.947Z,60.22
2022-10-17T02:57:38.046Z,60.11
2022-10-17T03:00:11.995Z,60.31
2022-10-17T03:02:40.331Z,60.69
2022-10-17T03:05:10.087Z,61.38
2022-10-17T03:07:37.604Z,60.92
2022-10-17T03:10:05.186Z,60.78
2022-10-17T03:12:32.522Z,60.59
2022-10-17T03:14:59.625Z,61.08
2022-10-17T03:17:26.813Z,61.16
2022-10-17T03:19:53.423Z,61.48
2022-10-17T03:22:21.433Z,61.72
2022-10-17T03:24:48.016Z,61.31
2022-10-17T03:27:16.178Z,59.99
2022-10-17T03:29:45.094Z,60.02
2022-10-17T03:32:13.148Z,60.48
2022-10-17T03:34:39.779Z,60.42
2022-10-17T03:37:06.454Z,60.48
2022-10-17T03:39:35.175Z,60.85
2022-10-17T03:42:02.074Z,61.38
2022-10-17T03:44:29.210Z,60.11
2022-10-17T03:46:57.851Z,59.98
2022-10-17T03:49:24.487Z,59.83
2022-10-17T03:51:51.223Z,59.86
2022-10-17T03:54:19.133Z,59.88
2022-10-17T03:56:46.150Z,59.09
2022-10-17T03:59:18.389Z,59.26
2022-10-17T04:01:53.233Z,59.66
2022-10-17T04:04:21.604Z,59.84
2022-10-17T04:06:48.284Z,59.80
2022-10-17T04:09:15.162Z,60.53
2022-10-17T04:12:04.582Z,61.41
2022-10-17T04:14:32.999Z,60.65
2022-10-17T04:17:00.314Z,60.48
2022-10-17T04:19:28.118Z,60.68
2022-10-17T04:21:55.140Z,60.51
2022-10-17T04:24:22.028Z,61.38
2022-10-17T04:26:52.230Z,61.82
2022-10-17T04:29:21.739Z,62.06
2022-10-17T04:31:52.275Z,62.05
2022-10-17T04:34:42.184Z,62.00
2022-10-17T04:37:08.836Z,61.69
2022-10-17T04:39:36.493Z,60.95
2022-10-17T04:42:03.165Z,60.98
2022-10-17T04:44:31.012Z,60.58
2022-10-17T04:46:58.971Z,60.66
2022-10-17T04:49:27.954Z,60.33
2022-10-17T04:52:00.021Z,60.48
2022-10-17T04:54:32.383Z,60.16
2022-10-17T04:57:07.730Z,60.28
2022-10-17T04:59:35.271Z,60.02
2022-10-17T05:02:17.230Z,59.99
2022-10-17T05:04:46.708Z,60.75
2022-10-17T05:07:15.736Z,60.15
2022-10-17T05:09:58.761Z,60.17
2022-10-17T05:12:25.910Z,60.31
2022-10-17T05:14:53.861Z,60.28
2022-10-17T05:17:22.358Z,60.49
2022-10-17T05:19:50.003Z,60.61
2022-10-17T05:22:17.096Z,60.47
2022-10-17T05:24:44.096Z,60.30
2022-10-17T05:27:11.969Z,60.26
2022-10-17T05:29:39.687Z,60.37
2022-10-17T05:32:18.752Z,59.76
2022-10-17T05:34:46.499Z,60.66
2022-10-17T05:37:13.976Z,60.42
2022-10-17T05:39:50.638Z,60.39
2022-10-17T05:42:18.660Z,60.91
2022-10-17T05:44:47.847Z,60.97
2022-10-17T05:47:17.159Z,61.20
2022-10-17T05:49:48.662Z,60.89
2022-10-17T05:52:20.018Z,60.50
2022-10-17T05:55:08.150Z,60.14
2022-10-17T05:57:34.794Z,59.99
2022-10-17T06:00:04.849Z,60.13
2022-10-17T06:02:40.820Z,61.29
2022-10-17T06:05:08.531Z,60.77
2022-10-17T06:07:35.848Z,60.35
2022-10-17T06:10:03.976Z,60.59
2022-10-17T06:12:30.772Z,60.41
2022-10-17T06:14:58.941Z,61.00
2022-10-17T06:17:26.267Z,60.61
2022-10-17T06:19:52.818Z,60.49
2022-10-17T06:22:19.493Z,60.66
2022-10-17T06:24:46.511Z,60.56
2022-10-17T06:27:14.274Z,60.63
2022-10-17T06:29:41.432Z,60.69
2022-10-17T06:32:11.165Z,61.12
2022-10-17T06:34:41.273Z,62.28
2022-10-17T06:37:08.669Z,61.69
2022-10-17T06:39:36.775Z,61.44
2022-10-17T06:42:11.571Z,61.60
2022-10-17T06:44:56.806Z,62.42
2022-10-17T06:47:38.423Z,61.93
2022-10-17T06:50:22.169Z,62.48
2022-10-17T06:52:59.129Z,64.36
2022-10-17T06:55:53.883Z,63.02
2022-10-17T06:58:30.318Z,61.53
2022-10-17T07:01:10.081Z,61.76
2022-10-17T07:03:37.293Z,61.29
2022-10-17T07:06:04.854Z,62.80
2022-10-17T07:08:31.714Z,63.56
2022-10-17T07:11:16.174Z,64.56
2022-10-17T07:13:43.210Z,64.50
2022-10-17T07:16:10.829Z,65.23
2022-10-17T07:18:40.026Z,65.76
2022-10-17T07:21:08.533Z,66.69
2022-10-17T07:23:37.004Z,66.72
2022-10-17T07:26:09.261Z,66.77
2022-10-17T07:28:40.141Z,64.96
2022-10-17T07:31:21.317Z,65.04
2022-10-17T07:33:48.925Z,64.53
2022-10-17T07:36:15.722Z,65.31
2022-10-17T07:38:42.610Z,65.07
2022-10-17T07:41:11.493Z,66.76
2022-10-17T07:43:38.764Z,66.83
2022-10-17T07:46:08.295Z,67.21
2022-10-17T07:48:35.238Z,66.47
2022-10-17T07:51:03.564Z,65.87
2022-10-17T07:53:30.407Z,66.38
2022-10-17T07:55:57.001Z,66.86
2022-10-17T07:58:23.561Z,66.87
2022-10-17T08:00:51.219Z,67.23
2022-10-17T08:03:17.993Z,67.73
2022-10-17T08:05:44.551Z,67.47
2022-10-17T08:08:11.082Z,67.15
2022-10-17T08:10:37.667Z,66.54
2022-10-17T08:13:04.309Z,66.79
2022-10-17T08:15:32.124Z,66.49
2022-10-17T08:17:59.457Z,66.36
2022-10-17T08:20:26.529Z,66.52
2022-10-17T08:22:56.641Z,67.18
2022-10-17T08:25:23.366Z,67.90
2022-10-17T08:27:50.044Z,67.43
2022-10-17T08:30:16.893Z,67.46
2022-10-17T08:32:43.699Z,67.66
2022-10-17T08:35:10.550Z,67.28
2022-10-17T08:37:37.102Z,68.04
2022-10-17T08:40:04.398Z,67.62
2022-10-17T08:43:09.464Z,67.22
2022-10-17T08:45:52.102Z,66.40
2022-10-17T08:48:24.033Z,66.60
2022-10-17T08:51:14.441Z,66.63
2022-10-17T08:53:51.323Z,67.22
2022-10-17T08:56:43.974Z,66.93
2022-10-17T08:59:19.952Z,65.69
2022-10-17T09:02:01.218Z,65.64
2022-10-17T09:04:42.170Z,65.43
2022-10-17T09:07:25.047Z,65.63
2022-10-17T09:10:15.820Z,65.23
2022-10-17T09:13:09.975Z,65.80
2022-10-17T09:16:01.160Z,65.10
2022-10-17T09:18:32.651Z,64.03
2022-10-17T09:21:18.087Z,65.20
2022-10-17T09:23:59.491Z,64.00
2022-10-17T09:26:36.562Z,62.94
2022-10-17T09:29:11.651Z,61.76
2022-10-17T09:32:04.052Z,62.38
2022-10-17T09:34:32.814Z,62.46
2022-10-17T09:37:01.536Z,62.51
2022-10-17T09:39:32.980Z,61.93
2022-10-17T09:42:01.520Z,63.20
2022-10-17T09:44:38.674Z,61.83
2022-10-17T09:47:23.684Z,62.25
2022-10-17T09:49:50.969Z,59.60
2022-10-17T09:52:27.820Z,60.64
2022-10-17T09:55:04.886Z,61.42
2022-10-17T09:57:56.281Z,59.90
2022-10-17T10:00:26.978Z,58.73
2022-10-17T10:03:17.640Z,58.59
2022-10-17T10:06:03.327Z,58.92
2022-10-17T10:08:33.811Z,58.71
2022-10-17T10:11:04.517Z,57.62
2022-10-17T10:13:33.425Z,56.34
2022-10-17T10:16:29.805Z,56.26
2022-10-17T10:18:56.393Z,55.96
2022-10-17T10:21:27.893Z,56.41
2022-10-17T10:24:13.006Z,54.17
2022-10-17T10:26:44.665Z,56.67
2022-10-17T10:29:32.095Z,53.79
2022-10-17T10:32:09.122Z,54.35
2022-10-17T10:34:39.176Z,56.37
2022-10-17T10:37:17.186Z,55.11
2022-10-17T10:39:53.234Z,54.30
2022-10-17T10:42:39.422Z,53.75
2022-10-17T10:45:29.298Z,52.45
2022-10-17T10:48:06.366Z,52.46
2022-10-17T10:50:56.109Z,53.25
2022-10-17T10:53:34.110Z,52.57
2022-10-17T10:56:08.311Z,52.52
2022-10-17T10:58:49.766Z,53.35
2022-10-17T11:01:22.566Z,53.85
2022-10-17T11:04:01.326Z,53.69
2022-10-17T11:06:34.262Z,52.58
2022-10-17T11:09:12.267Z,53.17
2022-10-17T11:11:50.025Z,53.17
2022-10-17T11:14:34.840Z,52.55
2022-10-17T11:17:12.045Z,52.36
2022-10-17T11:19:51.717Z,53.06
2022-10-17T11:22:26.623Z,54.40
2022-10-17T11:25:04.315Z,53.41
2022-10-17T11:27:33.773Z,53.66
2022-10-17T11:30:00.493Z,52.53
2022-10-17T11:32:34.377Z,52.57
2022-10-17T11:35:17.101Z,52.56
2022-10-17T11:37:50.794Z,52.75
2022-10-17T11:40:31.837Z,53.65
2022-10-17T11:43:24.581Z,52.70
2022-10-17T11:45:58.130Z,53.04
2022-10-17T11:49:13.077Z,52.27
2022-10-17T11:52:05.670Z,50.65
2022-10-17T11:54:41.761Z,53.34
2022-10-17T11:57:50.465Z,50.92
2022-10-17T12:00:39.264Z,51.27
2022-10-17T12:03:21.176Z,50.99
2022-10-17T12:05:59.802Z,49.75
2022-10-17T12:08:38.445Z,50.31
2022-10-17T12:11:17.703Z,51.35
2022-10-17T12:13:52.602Z,50.02
2022-10-17T12:16:21.732Z,49.87
2022-10-17T12:18:52.858Z,49.54
2022-10-17T12:21:19.392Z,50.23
2022-10-17T12:23:53.860Z,49.09
2022-10-17T12:26:29.031Z,49.14
2022-10-17T12:28:56.689Z,49.36
2022-10-17T12:31:29.604Z,48.28
2022-10-17T12:34:01.970Z,49.26
2022-10-17T12:36:28.670Z,48.15
2022-10-17T12:39:01.145Z,47.97
2022-10-17T12:41:40.271Z,47.88
2022-10-17T12:44:12.720Z,48.24
2022-10-17T12:47:01.127Z,48.97
2022-10-17T12:49:43.531Z,47.86
2022-10-17T12:52:27.176Z,47.22
2022-10-17T12:55:11.554Z,46.71
2022-10-17T12:57:50.338Z,48.57
2022-10-17T13:00:37.600Z,46.11
2022-10-17T13:03:20.401Z,46.17
2022-10-17T13:05:55.743Z,46.33
2022-10-17T13:08:32.178Z,45.51
2022-10-17T13:11:00.195Z,45.29
2022-10-17T13:13:38.251Z,46.14
2022-10-17T13:16:05.232Z,45.58
2022-10-17T13:18:31.983Z,45.20
2022-10-17T13:21:05.170Z,44.92
2022-10-17T13:23:37.890Z,45.52
2022-10-17T13:26:14.471Z,45.69
2022-10-17T13:28:42.579Z,44.50
2022-10-17T13:31:28.858Z,44.56
2022-10-17T13:33:57.913Z,45.02
2022-10-17T13:36:25.566Z,44.08
2022-10-17T13:38:52.352Z,44.74
2022-10-17T13:41:36.171Z,45.50
2022-10-17T13:44:11.563Z,45.36
2022-10-17T13:46:39.988Z,44.91
2022-10-17T13:49:18.809Z,45.71
2022-10-17T13:51:47.804Z,44.33
2022-10-17T13:54:40.177Z,45.08
2022-10-17T13:57:20.575Z,45.27
2022-10-17T13:59:51.528Z,44.84
2022-10-17T14:02:24.924Z,44.96
2022-10-17T14:05:23.007Z,44.70
2022-10-17T14:08:10.912Z,44.84
2022-10-17T14:10:38.840Z,44.23
2022-10-17T14:13:10.925Z,44.93
2022-10-17T14:15:37.712Z,44.91
2022-10-17T14:18:07.906Z,45.23
2022-10-17T14:23:33.202Z,44.91
2022-10-17T14:26:12.319Z,44.44
2022-10-17T14:28:40.003Z,44.59
2022-10-17T14:31:14.111Z,43.95
2022-10-17T14:33:49.663Z,44.56
2022-10-17T14:36:17.499Z,43.80
2022-10-17T14:38:49.652Z,44.08
2022-10-17T14:41:42.042Z,43.86
2022-10-17T14:44:19.213Z,43.93
2022-10-17T14:46:50.977Z,43.43
2022-10-17T14:49:32.664Z,44.26
2022-10-17T14:52:18.544Z,44.08
2022-10-17T14:54:49.676Z,44.52
2022-10-17T14:57:28.224Z,43.62
2022-10-17T14:59:56.532Z,43.81
2022-10-17T15:02:30.635Z,44.03
2022-10-17T15:04:57.464Z,43.38
2022-10-17T15:07:24.525Z,43.56
2022-10-17T15:09:53.155Z,44.13
2022-10-17T15:12:22.589Z,44.42
2022-10-17T15:14:50.491Z,43.91
2022-10-17T15:17:37.291Z,44.34
2022-10-17T15:20:04.043Z,44.21
2022-10-17T15:22:31.584Z,44.59
2022-10-17T15:24:58.408Z,44.05
2022-10-17T15:27:26.420Z,43.41
2022-10-17T15:29:53.203Z,42.52
2022-10-17T15:32:19.860Z,43.08
2022-10-17T15:34:46.381Z,44.20
2022-10-17T15:37:22.464Z,45.62
2022-10-17T15:39:54.518Z,44.97
2022-10-17T15:42:23.234Z,45.88
2022-10-17T15:44:50.231Z,46.08
2022-10-17T15:47:31.037Z,46.12
2022-10-17T15:49:58.193Z,45.67
2022-10-17T15:52:25.266Z,45.66
2022-10-17T15:54:52.239Z,46.46
2022-10-17T15:57:24.309Z,47.05
2022-10-17T15:59:52.436Z,47.48
2022-10-17T16:02:20.871Z,47.34
2022-10-17T16:04:48.734Z,47.68
2022-10-17T16:07:15.295Z,46.99
2022-10-17T16:09:41.841Z,48.05
2022-10-17T16:12:16.363Z,47.75
2022-10-17T16:14:43.069Z,48.54
2022-10-17T16:17:13.692Z,48.38
2022-10-17T16:19:40.346Z,49.30
2022-10-17T16:22:18.974Z,50.72
2022-10-17T16:24:45.742Z,51.35
2022-10-17T16:27:12.333Z,52.21
2022-10-17T16:29:38.946Z,51.54
2022-10-17T16:32:05.566Z,51.41
2022-10-17T16:34:32.314Z,52.22
2022-10-17T16:36:58.894Z,51.50
2022-10-17T16:39:25.454Z,52.21
2022-10-17T16:41:54.798Z,51.71
2022-10-17T16:44:24.310Z,52.83
2022-10-17T16:46:50.883Z,52.24
2022-10-17T16:49:18.223Z,52.85
2022-10-17T16:51:44.840Z,53.42
2022-10-17T16:54:11.422Z,52.15
2022-10-17T16:56:38.078Z,52.81
2022-10-17T16:59:04.693Z,52.80
2022-10-17T17:01:31.350Z,52.32
2022-10-17T17:03:58.134Z,52.22
2022-10-17T17:06:27.994Z,51.93
2022-10-17T17:08:56.136Z,51.89
2022-10-17T17:11:25.310Z,52.26
2022-10-17T17:13:52.068Z,52.82
2022-10-17T17:16:24.208Z,52.42
2022-10-17T17:18:55.602Z,53.45
2022-10-17T17:21:22.716Z,53.91
2022-10-17T17:23:49.653Z,53.64
2022-10-17T17:26:19.535Z,54.68
2022-10-17T17:28:46.822Z,54.30
2022-10-17T17:31:17.557Z,55.25
2022-10-17T17:33:46.590Z,54.42
2022-10-17T17:36:17.147Z,54.13
2022-10-17T17:38:44.271Z,53.96
2022-10-17T17:41:16.069Z,53.38
2022-10-17T17:43:44.147Z,53.08
2022-10-17T17:46:10.957Z,53.43
2022-10-17T17:48:39.087Z,53.90
2022-10-17T17:51:07.208Z,54.81
2022-10-17T17:53:35.314Z,55.31
2022-10-17T17:56:06.997Z,53.56
2022-10-17T17:58:35.011Z,53.13
2022-10-17T18:01:08.176Z,52.94
2022-10-17T18:03:34.987Z,53.21
2022-10-17T18:06:01.543Z,53.01
2022-10-17T18:08:28.114Z,53.74
2022-10-17T18:10:56.371Z,53.42
2022-10-17T18:13:22.965Z,53.42
2022-10-17T18:15:51.826Z,53.46
2022-10-17T18:18:18.964Z,53.61
2022-10-17T18:20:45.723Z,53.84
2022-10-17T18:23:12.366Z,53.82
2022-10-17T18:25:39.114Z,54.11
2022-10-17T18:28:05.684Z,54.17
2022-10-17T18:30:34.530Z,54.04
2022-10-17T18:33:01.640Z,54.11
2022-10-17T18:35:28.304Z,53.68
2022-10-17T18:37:56.942Z,54.47
2022-10-17T18:40:23.508Z,54.55
2022-10-17T18:42:50.067Z,54.08
2022-10-17T18:45:17.809Z,54.49
2022-10-17T18:47:47.251Z,54.23
2022-10-17T18:50:14.717Z,54.46
2022-10-17T18:52:41.316Z,54.23
2022-10-17T18:55:08.277Z,54.46
2022-10-17T18:57:34.833Z,54.42
2022-10-17T19:00:01.429Z,54.41
2022-10-17T19:02:28.069Z,54.37
2022-10-17T19:04:54.621Z,54.66
2022-10-17T19:07:21.174Z,54.22
2022-10-17T19:09:48.763Z,54.37
2022-10-17T19:12:15.751Z,54.66
2022-10-17T19:14:42.265Z,54.94
2022-10-17T19:17:08.862Z,54.61
2022-10-17T19:19:36.030Z,54.26
2022-10-17T19:22:03.437Z,55.59
2022-10-17T19:24:30.024Z,56.04
2022-10-17T19:26:59.382Z,55.24
2022-10-17T19:29:27.974Z,55.81
2022-10-17T19:34:22.279Z,56.11
2022-10-17T19:36:48.951Z,56.64
2022-10-17T19:39:19.238Z,57.14
2022-10-17T19:41:47.518Z,56.81
2022-10-17T19:44:14.858Z,55.85
2022-10-17T19:46:44.241Z,57.21
2022-10-17T19:49:11.602Z,56.93
2022-10-17T19:51:38.740Z,55.95
2022-10-17T19:54:05.818Z,55.42
2022-10-17T19:56:37.688Z,54.92
2022-10-17T19:59:06.109Z,54.79
2022-10-17T20:01:35.133Z,55.07
2022-10-17T20:04:02.297Z,56.95
2022-10-17T20:06:28.928Z,56.83
2022-10-17T20:08:55.632Z,56.55
2022-10-17T20:11:26.181Z,56.09
2022-10-17T20:13:54.089Z,56.21
2022-10-17T20:16:26.486Z,56.15
2022-10-17T20:18:56.202Z,56.51
2022-10-17T20:21:27.351Z,55.80
2022-10-17T20:23:54.467Z,55.45
2022-10-17T20:26:36.998Z,55.99
2022-10-17T20:29:08.221Z,56.01
2022-10-17T20:31:35.114Z,55.54
2022-10-17T20:34:01.783Z,55.57
2022-10-17T20:36:28.425Z,56.46
2022-10-17T20:38:56.915Z,56.69
2022-10-17T20:41:24.437Z,57.37
2022-10-17T20:43:52.361Z,56.30
2022-10-17T20:46:34.962Z,55.70
2022-10-17T20:49:03.763Z,55.83
2022-10-17T20:51:30.756Z,55.70
2022-10-17T20:56:31.524Z,56.02
2022-10-17T20:59:03.499Z,56.07
2022-10-17T21:01:32.044Z,56.97
2022-10-17T21:04:06.132Z,56.54
2022-10-17T21:06:38.442Z,57.13
2022-10-17T21:09:06.063Z,58.09
2022-10-17T21:11:32.630Z,57.96
2022-10-17T21:14:03.412Z,58.04
2022-10-17T21:16:31.664Z,57.11
2022-10-17T21:18:58.876Z,56.49
2022-10-17T21:21:30.943Z,56.31
2022-10-17T21:24:00.785Z,56.85
2022-10-17T21:26:28.267Z,56.78
2022-10-17T21:28:55.199Z,57.13
2022-10-17T21:31:24.040Z,57.73
2022-10-17T21:33:53.237Z,57.64
2022-10-17T21:36:21.558Z,57.24
2022-10-17T21:38:50.497Z,57.69
2022-10-17T21:41:19.619Z,58.48
2022-10-17T21:43:46.509Z,58.41
2022-10-17T21:46:16.636Z,58.79
2022-10-17T21:48:43.984Z,58.42
2022-10-17T21:51:12.798Z,58.35
2022-10-17T21:53:39.567Z,58.67
2022-10-17T21:56:09.879Z,59.31
2022-10-17T21:58:36.442Z,58.93
2022-10-17T22:01:08.819Z,58.73
2022-10-17T22:03:44.084Z,58.60
2022-10-17T22:06:38.820Z,58.27
2022-10-17T22:09:04.211Z,58.58
2022-10-17T22:11:33.854Z,59.00
2022-10-17T22:14:06.809Z,58.49
2022-10-17T22:16:34.326Z,58.20
2022-10-17T22:19:05.946Z,57.89
2022-10-17T22:21:35.494Z,57.93
2022-10-17T22:24:06.095Z,58.50
2022-10-17T22:26:34.427Z,58.84
2022-10-17T22:29:01.636Z,58.74
2022-10-17T22:31:28.348Z,58.55
2022-10-17T22:33:55.974Z,59.21
2022-10-17T22:36:22.892Z,59.43
2022-10-17T22:38:50.214Z,59.56
2022-10-17T22:41:17.561Z,59.31
2022-10-17T22:43:44.623Z,59.73
2022-10-17T22:46:14.067Z,59.07
2022-10-17T22:48:40.736Z,58.60
2022-10-17T22:51:07.649Z,58.36
2022-10-17T22:53:35.144Z,58.05
2022-10-17T22:56:13.790Z,58.43
2022-10-17T22:58:41.435Z,58.25
2022-10-17T23:01:14.483Z,58.41
2022-10-17T23:03:41.256Z,58.25
2022-10-17T23:06:07.799Z,58.20
2022-10-17T23:08:35.001Z,58.33
2022-10-17T23:11:01.725Z,58.24
2022-10-17T23:13:29.310Z,58.59
2022-10-17T23:15:57.071Z,58.60
2022-10-17T23:18:25.707Z,58.50
2022-10-17T23:20:53.110Z,58.24
2022-10-17T23:23:20.234Z,59.44
2022-10-17T23:25:47.555Z,59.20
2022-10-17T23:28:14.273Z,59.07
2022-10-17T23:30:41.195Z,59.18
2022-10-17T23:33:08.085Z,59.38
2022-10-17T23:35:35.625Z,59.75
2022-10-17T23:38:02.415Z,59.51
2022-10-17T23:40:29.086Z,59.25
2022-10-17T23:42:55.703Z,58.77
2022-10-17T23:45:22.347Z,59.05
2022-10-17T23:47:48.996Z,58.77
2022-10-17T23:50:16.548Z,58.88
2022-10-17T23:52:43.489Z,58.95
2022-10-17T23:55:10.225Z,59.28
2022-10-17T23:57:37.086Z,59.95
